Time;durP1;ratioP1;P1;durP2;ratioP2;P2;SDS_P1;SDS_P2;PMS_P1;PMS_P2;Temp;Humidity;BMP_temperature;BMP_pressure;BME280_temperature;BME280_humidity;BME280_pressure;Samples;Min_cycle;Max_cycle;Signal;HPM_P1;HPM_P2
2023/05/02 00:00:27;;;;;;;3.53;2.83;;;12.00;99.90;12.00;100391.00;;;;4933676;28;88047;-73
2023/05/02 00:02:53;;;;;;;3.47;2.43;;;12.10;99.90;12.10;100387.00;;;;4932281;28;89117;-73
2023/05/02 00:05:19;;;;;;;5.83;3.37;;;12.10;99.90;12.10;100393.00;;;;4929457;28;100582;-73
2023/05/02 00:07:45;;;;;;;4.83;2.60;;;12.10;99.90;12.10;100390.00;;;;4933812;28;88067;-73
2023/05/02 00:10:10;;;;;;;4.17;2.80;;;12.10;99.90;12.10;100393.00;;;;4931140;28;89486;-73
2023/05/02 00:12:37;;;;;;;2.93;2.27;;;12.10;99.90;12.10;100395.00;;;;4927173;28;110041;-72
2023/05/02 00:15:04;;;;;;;4.23;2.83;;;12.10;99.90;12.10;100383.00;;;;4930322;28;87900;-73
2023/05/02 00:17:29;;;;;;;3.20;2.80;;;12.10;99.90;12.10;100399.00;;;;4930411;28;101447;-73
2023/05/02 00:19:55;;;;;;;3.07;2.63;;;12.20;99.90;12.20;100393.00;;;;4929796;28;88497;-72
2023/05/02 00:22:21;;;;;;;4.37;3.03;;;12.10;99.90;12.20;100383.00;;;;4928052;28;86969;-73
2023/05/02 00:24:46;;;;;;;4.37;3.07;;;12.20;99.90;12.20;100390.00;;;;4929398;28;108971;-71
2023/05/02 00:27:13;;;;;;;3.17;2.87;;;12.20;99.90;12.10;100385.00;;;;4925991;28;118300;-71
2023/05/02 00:29:39;;;;;;;4.67;2.53;;;12.10;99.90;12.20;100391.00;;;;4927155;28;89000;-71
2023/05/02 00:32:06;;;;;;;4.23;3.03;;;12.20;99.90;12.10;100384.00;;;;4927889;28;88808;-72
2023/05/02 00:34:31;;;;;;;2.33;2.13;;;12.20;99.90;12.10;100385.00;;;;4927185;28;108105;-72
2023/05/02 00:36:58;;;;;;;6.20;2.67;;;12.20;99.90;12.10;100389.00;;;;4928629;28;116660;-72
2023/05/02 00:39:24;;;;;;;3.27;2.80;;;12.10;99.90;12.10;100380.00;;;;4925558;28;88412;-72
2023/05/02 00:41:59;;;;;;;2.17;2.00;;;12.10;99.90;12.10;100384.00;;;;4927813;28;88331;-74
2023/05/02 00:44:24;;;;;;;2.70;2.27;;;12.10;99.90;12.10;100388.00;;;;4926652;28;87902;-72
2023/05/02 00:46:51;;;;;;;3.43;3.03;;;12.10;99.90;12.10;100380.00;;;;4924716;28;116716;-72
2023/05/02 00:49:18;;;;;;;3.27;2.40;;;12.10;99.90;12.10;100388.00;;;;4929345;28;88350;-73
2023/05/02 00:51:44;;;;;;;2.97;2.73;;;12.10;99.90;12.10;100395.00;;;;4926713;28;88028;-73
2023/05/02 00:54:12;;;;;;;5.50;3.00;;;12.10;99.90;12.10;100390.00;;;;4923761;28;88845;-73
2023/05/02 00:56:37;;;;;;;5.70;2.93;;;12.10;99.90;12.10;100383.00;;;;4932667;28;87834;-73
2023/05/02 00:59:04;;;;;;;4.70;2.57;;;12.00;99.90;12.00;100385.00;;;;4928485;28;100277;-72
2023/05/02 01:01:56;;;;;;;5.07;2.60;;;12.10;99.90;12.00;100387.00;;;;4928095;28;89240;-70
2023/05/02 01:04:57;;;;;;;3.30;3.07;;;12.00;99.90;12.00;100386.00;;;;4928868;28;89189;-70
2023/05/02 01:07:31;;;;;;;4.07;3.03;;;12.00;99.90;12.00;100394.00;;;;4930062;28;87882;-70
2023/05/02 01:10:32;;;;;;;3.37;3.03;;;12.00;99.90;12.00;100390.00;;;;4933162;28;89397;-70
2023/05/02 01:13:04;;;;;;;3.80;3.30;;;12.00;99.90;12.00;100390.00;;;;4929165;28;102752;-71
2023/05/02 01:15:31;;;;;;;3.53;2.87;;;12.00;99.90;12.00;100380.00;;;;4930732;28;90205;-71
2023/05/02 01:18:01;;;;;;;5.53;3.10;;;12.00;99.90;12.00;100387.00;;;;4924147;28;118829;-71
2023/05/02 01:20:28;;;;;;;4.67;3.17;;;12.00;99.90;12.00;100390.00;;;;4930799;28;88975;-71
2023/05/02 01:23:00;;;;;;;3.27;2.47;;;12.00;99.90;12.00;100395.00;;;;4929601;28;87893;-71
2023/05/02 01:25:44;;;;;;;4.20;3.53;;;12.00;99.90;12.00;100392.00;;;;4924026;28;88192;-72
2023/05/02 01:28:35;;;;;;;4.07;2.93;;;12.00;99.90;12.00;100395.00;;;;4927158;28;94451;-72
2023/05/02 01:31:03;;;;;;;5.03;3.23;;;12.00;99.90;12.00;100387.00;;;;4931572;28;100413;-72
2023/05/02 01:33:30;;;;;;;5.13;3.00;;;12.00;99.90;12.00;100395.00;;;;4931609;28;110043;-71
2023/05/02 01:35:58;;;;;;;3.80;2.90;;;12.00;99.90;12.00;100386.00;;;;4926793;28;110086;-70
2023/05/02 01:38:25;;;;;;;2.97;2.67;;;12.00;99.90;12.00;100393.00;;;;4928471;28;118101;-70
2023/05/02 01:40:52;;;;;;;4.50;3.33;;;12.00;99.90;12.00;100393.00;;;;4927972;28;95409;-72
2023/05/02 01:43:20;;;;;;;4.70;3.40;;;12.00;99.90;12.00;100405.00;;;;4929341;28;110978;-70
2023/05/02 01:45:49;;;;;;;2.47;2.27;;;12.00;99.90;12.00;100398.00;;;;4927443;28;88707;-70
2023/05/02 01:48:18;;;;;;;4.37;3.30;;;12.00;99.90;12.00;100397.00;;;;4929119;28;88181;-70
2023/05/02 01:50:45;;;;;;;3.40;2.67;;;12.00;99.90;12.00;100407.00;;;;4924399;28;91754;-70
2023/05/02 01:53:13;;;;;;;4.30;3.37;;;12.00;99.90;11.90;100391.00;;;;4927346;28;87855;-69
2023/05/02 01:55:43;;;;;;;3.60;2.57;;;12.00;99.90;12.00;100396.00;;;;4928046;28;87911;-69
2023/05/02 01:58:11;;;;;;;5.80;3.93;;;12.00;99.90;11.90;100404.00;;;;4927784;28;109331;-69
2023/05/02 02:00:37;;;;;;;3.73;3.13;;;11.90;99.90;12.00;100399.00;;;;4929141;28;88174;-69
2023/05/02 02:03:06;;;;;;;4.67;3.33;;;11.90;99.90;11.90;100396.00;;;;4927260;28;87207;-70
2023/05/02 02:05:34;;;;;;;3.50;3.13;;;11.90;99.90;12.00;100402.00;;;;4924164;28;88239;-70
2023/05/02 02:08:00;;;;;;;3.00;2.70;;;12.00;99.90;12.00;100400.00;;;;4927080;28;88269;-69
2023/05/02 02:10:31;;;;;;;3.23;2.73;;;11.90;99.90;11.90;100408.00;;;;4927245;28;88761;-69
2023/05/02 02:13:07;;;;;;;7.57;3.30;;;11.90;99.90;11.90;100404.00;;;;4927569;28;92904;-69
2023/05/02 02:15:38;;;;;;;2.40;2.17;;;11.90;99.90;11.90;100392.00;;;;4926641;28;96314;-71
2023/05/02 02:18:21;;;;;;;3.87;2.60;;;11.90;99.90;11.90;100397.00;;;;4927624;28;117063;-71
2023/05/02 02:20:47;;;;;;;3.27;2.50;;;11.90;99.90;11.90;100412.00;;;;4932287;28;87858;-70
2023/05/02 02:23:14;;;;;;;4.60;3.53;;;11.90;99.90;11.80;100413.00;;;;4921355;28;101808;-70
2023/05/02 02:25:42;;;;;;;3.50;2.60;;;11.90;99.90;11.90;100404.00;;;;4928758;28;88883;-70
2023/05/02 02:28:08;;;;;;;3.23;2.93;;;11.90;99.90;11.90;100394.00;;;;4927047;28;115841;-70
2023/05/02 02:30:34;;;;;;;4.37;2.83;;;11.90;99.90;11.90;100409.00;;;;4925226;28;117099;-70
2023/05/02 02:32:59;;;;;;;3.43;3.13;;;11.80;99.90;11.80;100398.00;;;;4926901;28;110472;-70
2023/05/02 02:35:36;;;;;;;6.00;3.20;;;11.90;99.90;11.80;100404.00;;;;4929395;28;89000;-70
2023/05/02 02:38:26;;;;;;;2.80;2.60;;;11.80;99.90;11.80;100405.00;;;;4924221;28;88271;-70
2023/05/02 02:41:02;;;;;;;4.37;2.83;;;11.80;99.90;11.80;100408.00;;;;4929481;28;87996;-70
2023/05/02 02:43:46;;;;;;;4.00;2.77;;;11.80;99.90;11.80;100415.00;;;;4927279;28;100627;-70
2023/05/02 02:46:38;;;;;;;4.17;3.23;;;11.80;99.90;11.80;100404.00;;;;4931445;28;87786;-70
2023/05/02 02:49:31;;;;;;;3.13;2.80;;;11.80;99.90;11.70;100417.00;;;;4925722;28;87823;-70
2023/05/02 02:52:45;;;;;;;6.73;3.70;;;11.80;99.90;11.70;100413.00;;;;4927070;28;87732;-70
2023/05/02 02:55:39;;;;;;;8.43;3.63;;;11.80;99.90;11.70;100423.00;;;;4873838;28;87399;-70
2023/05/02 02:58:26;;;;;;;2.13;1.90;;;11.70;99.90;11.70;100424.00;;;;4927940;28;88221;-70
2023/05/02 03:00:52;;;;;;;2.37;2.00;;;11.70;99.90;11.70;100429.00;;;;4927154;28;112928;-70
2023/05/02 03:03:21;;;;;;;2.77;2.30;;;11.70;99.90;11.70;100436.00;;;;4925764;28;116885;-70
2023/05/02 03:05:48;;;;;;;3.60;2.97;;;11.70;99.90;11.70;100441.00;;;;4930467;28;87757;-70
2023/05/02 03:08:13;;;;;;;4.13;3.73;;;11.70;99.90;11.70;100442.00;;;;4918252;28;109326;-71
2023/05/02 03:10:39;;;;;;;6.07;3.33;;;11.70;99.90;11.70;100433.00;;;;4931535;28;116743;-70
2023/05/02 03:13:05;;;;;;;5.67;3.27;;;11.80;99.90;11.70;100446.00;;;;4926633;28;87913;-69
2023/05/02 03:15:52;;;;;;;3.60;2.43;;;11.70;99.90;11.70;100441.00;;;;4928051;28;111217;-69
2023/05/02 03:18:18;;;;;;;4.90;3.17;;;11.70;99.90;11.70;100457.00;;;;4931077;28;87808;-70
2023/05/02 03:20:44;;;;;;;4.37;3.57;;;11.70;99.90;11.70;100456.00;;;;4929288;28;110365;-69
2023/05/02 03:23:10;;;;;;;3.60;2.47;;;11.70;99.90;11.70;100452.00;;;;4926053;28;116875;-69
2023/05/02 03:25:35;;;;;;;4.23;2.67;;;11.70;99.90;11.70;100452.00;;;;4931794;28;87811;-69
2023/05/02 03:28:02;;;;;;;3.27;2.90;;;11.70;99.90;11.60;100459.00;;;;4933092;28;107473;-69
2023/05/02 03:30:27;;;;;;;4.40;3.43;;;11.70;99.90;11.60;100468.00;;;;4931245;28;119315;-70
2023/05/02 03:32:53;;;;;;;4.87;3.00;;;11.60;99.90;11.60;100461.00;;;;4933889;28;116751;-70
2023/05/02 03:35:19;;;;;;;4.43;2.90;;;11.60;99.90;11.60;100467.00;;;;4932683;28;110062;-69
2023/05/02 03:37:45;;;;;;;4.90;4.33;;;11.60;99.90;11.50;100467.00;;;;4928268;28;88161;-69
2023/05/02 03:40:11;;;;;;;5.30;3.33;;;11.60;99.90;11.50;100473.00;;;;4922208;28;118238;-69
2023/05/02 03:42:40;;;;;;;4.00;3.10;;;11.60;99.90;11.50;100481.00;;;;4928381;28;117381;-69
2023/05/02 03:45:07;;;;;;;4.60;2.80;;;11.50;99.90;11.40;100482.00;;;;4928563;28;87336;-68
2023/05/02 03:47:33;;;;;;;7.90;4.30;;;11.50;99.90;11.40;100490.00;;;;4933028;28;88994;-68
2023/05/02 03:49:59;;;;;;;6.10;3.40;;;11.50;99.90;11.40;100488.00;;;;4933291;28;88340;-68
2023/05/02 03:52:25;;;;;;;5.33;3.90;;;11.40;99.90;11.40;100488.00;;;;4929231;28;89371;-68
2023/05/02 03:54:51;;;;;;;5.83;3.80;;;11.40;99.90;11.30;100483.00;;;;4930475;28;110554;-67
2023/05/02 03:57:17;;;;;;;5.10;3.23;;;11.30;99.90;11.30;100480.00;;;;4928099;28;107626;-67
2023/05/02 03:59:44;;;;;;;3.63;3.00;;;11.30;99.90;11.30;100491.00;;;;4928617;28;107855;-69
2023/05/02 04:02:10;;;;;;;3.77;2.97;;;11.30;99.90;11.30;100501.00;;;;4930023;28;88490;-67
2023/05/02 04:04:37;;;;;;;4.03;3.50;;;11.30;99.90;11.30;100505.00;;;;4926018;28;101508;-66
2023/05/02 04:07:04;;;;;;;4.30;3.90;;;11.30;99.90;11.30;100502.00;;;;4928612;28;87570;-67
2023/05/02 04:09:30;;;;;;;4.33;3.17;;;11.30;99.90;11.30;100519.00;;;;4928483;28;87537;-68
2023/05/02 04:11:55;;;;;;;3.70;3.00;;;11.30;99.90;11.30;100522.00;;;;4927671;28;115751;-67
2023/05/02 04:14:21;;;;;;;3.47;3.17;;;11.30;99.90;11.30;100531.00;;;;4926783;28;111417;-67
2023/05/02 04:16:50;;;;;;;6.97;3.23;;;11.30;99.90;11.40;100527.00;;;;4927610;28;108901;-67
2023/05/02 04:19:18;;;;;;;5.43;3.30;;;11.40;99.90;11.40;100539.00;;;;4930145;28;88977;-67
2023/05/02 04:21:44;;;;;;;6.53;3.37;;;11.40;99.90;11.40;100534.00;;;;4930119;28;116422;-67
2023/05/02 04:24:12;;;;;;;5.87;4.50;;;11.40;99.90;11.40;100546.00;;;;4926558;28;109470;-66
2023/05/02 04:26:37;;;;;;;4.87;2.97;;;11.40;99.90;11.50;100556.00;;;;4931815;28;87968;-66
2023/05/02 04:29:03;;;;;;;4.50;3.90;;;11.50;99.90;11.50;100545.00;;;;4929405;28;117126;-66
2023/05/02 04:31:31;;;;;;;5.93;3.60;;;11.50;99.90;11.50;100543.00;;;;4930225;28;118330;-66
2023/05/02 04:33:57;;;;;;;3.43;3.13;;;11.50;99.90;11.60;100557.00;;;;4928055;28;87187;-67
2023/05/02 04:36:24;;;;;;;4.27;3.33;;;11.60;99.90;11.60;100554.00;;;;4931140;28;108014;-68
2023/05/02 04:38:49;;;;;;;4.43;3.50;;;11.60;99.90;11.60;100553.00;;;;4925762;28;90441;-67
2023/05/02 04:41:16;;;;;;;4.30;3.50;;;11.60;99.90;11.70;100546.00;;;;4923186;28;117876;-67
2023/05/02 04:43:41;;;;;;;5.97;3.93;;;11.80;99.90;11.70;100570.00;;;;4926971;28;88099;-67
2023/05/02 04:46:07;;;;;;;4.97;3.50;;;11.70;99.90;11.70;100560.00;;;;4923977;28;107083;-67
2023/05/02 04:48:33;;;;;;;4.57;3.03;;;11.70;99.90;11.70;100560.00;;;;4924825;28;117535;-67
2023/05/02 04:50:58;;;;;;;4.20;3.80;;;11.80;99.90;11.80;100568.00;;;;4926121;28;117585;-66
2023/05/02 04:53:24;;;;;;;3.67;3.33;;;11.80;99.90;11.90;100575.00;;;;4926374;28;110826;-67
2023/05/02 04:55:50;;;;;;;4.73;3.33;;;11.80;99.90;11.90;100577.00;;;;4927112;28;109090;-66
2023/05/02 04:58:15;;;;;;;4.63;3.43;;;11.90;99.90;11.90;100578.00;;;;4922747;28;94448;-67
2023/05/02 05:00:41;;;;;;;3.97;3.23;;;11.90;99.90;12.00;100579.00;;;;4917354;28;116536;-66
2023/05/02 05:03:07;;;;;;;3.33;3.03;;;11.90;99.90;12.00;100593.00;;;;4927996;28;110670;-67
2023/05/02 05:05:33;;;;;;;3.70;2.80;;;12.00;99.90;12.00;100591.00;;;;4919640;28;108281;-67
2023/05/02 05:07:58;;;;;;;3.93;2.67;;;12.00;99.90;12.10;100597.00;;;;4923976;28;88351;-67
2023/05/02 05:10:24;;;;;;;5.73;2.87;;;12.10;99.90;12.10;100592.00;;;;4930715;28;88481;-68
2023/05/02 05:12:50;;;;;;;4.53;2.80;;;12.10;99.90;12.10;100599.00;;;;4929833;28;87616;-67
2023/05/02 05:15:16;;;;;;;2.90;2.30;;;12.10;99.90;12.20;100603.00;;;;4943455;28;94289;-67
2023/05/02 05:17:42;;;;;;;3.17;2.80;;;12.20;99.90;12.20;100611.00;;;;4930161;28;88681;-67
2023/05/02 05:20:09;;;;;;;3.03;2.73;;;12.20;99.90;12.20;100619.00;;;;4927864;28;88668;-67
2023/05/02 05:22:38;;;;;;;5.53;3.43;;;12.20;99.90;12.30;100632.00;;;;4928551;28;87153;-67
2023/05/02 05:25:04;;;;;;;5.53;2.40;;;12.30;99.90;12.30;100629.00;;;;4945173;28;87797;-70
2023/05/02 05:27:30;;;;;;;2.53;2.33;;;12.30;99.90;12.40;100647.00;;;;4929766;28;91693;-67
2023/05/02 05:29:56;;;;;;;6.23;2.70;;;12.40;99.90;12.40;100643.00;;;;4931500;28;88809;-67
2023/05/02 05:32:23;;;;;;;3.77;2.47;;;12.40;99.90;12.50;100633.00;;;;4927652;28;107793;-67
2023/05/02 05:34:52;;;;;;;3.57;2.77;;;12.40;99.90;12.50;100650.00;;;;4929951;28;88177;-66
2023/05/02 05:37:18;;;;;;;3.27;2.73;;;12.50;99.90;12.60;100652.00;;;;4928870;28;88258;-66
2023/05/02 05:39:44;;;;;;;3.50;2.43;;;12.60;99.90;12.70;100652.00;;;;4929849;28;87864;-66
2023/05/02 05:42:11;;;;;;;4.07;1.83;;;12.70;99.90;12.80;100643.00;;;;4929463;28;109982;-66
2023/05/02 05:44:37;;;;;;;3.87;3.27;;;12.70;99.90;12.90;100643.00;;;;4930666;28;88061;-67
2023/05/02 05:47:03;;;;;;;3.33;2.87;;;12.90;99.90;13.10;100647.00;;;;4929284;28;96609;-68
2023/05/02 05:49:29;;;;;;;7.60;2.40;;;13.00;99.90;13.20;100649.00;;;;4930830;28;87916;-67
2023/05/02 05:51:55;;;;;;;2.10;1.90;;;13.20;99.90;13.40;100655.00;;;;4926618;28;110147;-67
2023/05/02 05:54:20;;;;;;;2.60;2.40;;;13.30;99.90;13.50;100656.00;;;;4925696;28;109850;-67
2023/05/02 05:56:46;;;;;;;9.90;2.40;;;13.40;99.90;13.60;100653.00;;;;4925429;28;117570;-68
2023/05/02 05:59:12;;;;;;;2.73;2.47;;;13.50;99.90;13.80;100667.00;;;;4909066;28;96134;-67
2023/05/02 06:01:38;;;;;;;5.47;2.40;;;13.70;99.90;13.90;100676.00;;;;4929124;28;87897;-67
2023/05/02 06:04:04;;;;;;;2.40;2.20;;;13.80;99.90;14.00;100677.00;;;;4930622;28;87929;-66
2023/05/02 06:06:30;;;;;;;2.20;2.00;;;13.90;99.90;14.20;100677.00;;;;4931708;28;88693;-67
2023/05/02 06:08:56;;;;;;;3.90;2.60;;;14.10;99.90;14.30;100677.00;;;;4927304;28;87961;-67
2023/05/02 06:11:23;;;;;;;2.42;1.75;;;14.20;99.90;14.50;100683.00;;;;4928322;28;93360;-67
2023/05/02 06:13:52;;;;;;;1.98;1.88;;;14.40;99.90;14.60;100689.00;;;;4927743;28;88305;-67
2023/05/02 06:16:19;;;;;;;1.60;1.33;;;14.50;99.90;14.70;100703.00;;;;4927723;28;104817;-67
2023/05/02 06:18:45;;;;;;;3.05;1.98;;;14.60;99.90;14.80;100701.00;;;;4926250;28;118617;-67
2023/05/02 06:21:11;;;;;;;4.32;1.75;;;14.70;99.90;14.90;100715.00;;;;4925254;28;97999;-67
2023/05/02 06:23:37;;;;;;;1.38;1.27;;;14.80;99.90;14.90;100723.00;;;;4938391;28;107702;-67
2023/05/02 06:26:04;;;;;;;4.57;1.50;;;14.80;99.90;14.90;100730.00;;;;4931063;28;89085;-67
2023/05/02 06:28:30;;;;;;;4.32;1.58;;;14.90;99.90;15.00;100739.00;;;;4924916;28;88511;-67
2023/05/02 06:31:01;;;;;;;2.05;1.33;;;14.90;99.90;15.00;100739.00;;;;4926976;28;88170;-67
2023/05/02 06:33:28;;;;;;;1.08;1.02;;;14.90;99.90;15.10;100736.00;;;;4924312;28;87991;-67
2023/05/02 06:35:54;;;;;;;1.83;1.73;;;15.00;99.90;15.20;100753.00;;;;4927892;28;87562;-67
2023/05/02 06:38:20;;;;;;;2.03;1.70;;;15.10;99.90;15.20;100759.00;;;;4927121;28;88042;-67
2023/05/02 06:40:46;;;;;;;2.85;2.10;;;15.20;99.90;15.20;100755.00;;;;4925391;28;88166;-67
2023/05/02 06:43:12;;;;;;;2.45;1.60;;;15.20;99.90;15.30;100753.00;;;;4928285;28;99087;-67
2023/05/02 06:45:39;;;;;;;2.78;1.70;;;15.20;99.90;15.30;100764.00;;;;4926005;28;110095;-68
2023/05/02 06:48:05;;;;;;;2.28;1.63;;;15.30;99.90;15.50;100766.00;;;;4926716;28;87882;-67
2023/05/02 06:50:31;;;;;;;3.90;1.88;;;15.40;99.90;15.70;100773.00;;;;4925656;28;87840;-67
2023/05/02 06:52:57;;;;;;;2.13;1.92;;;15.60;99.90;15.80;100792.00;;;;4924697;28;88169;-67
2023/05/02 06:55:23;;;;;;;2.65;2.08;;;15.70;99.50;15.80;100784.00;;;;4928648;28;88282;-67
2023/05/02 06:57:49;;;;;;;1.55;1.38;;;15.80;98.80;15.90;100791.00;;;;4925609;28;117008;-66
2023/05/02 07:00:17;;;;;;;2.30;2.03;;;15.80;98.20;15.90;100797.00;;;;4927728;28;87120;-68
2023/05/02 07:02:44;;;;;;;2.38;2.17;;;15.80;97.90;16.00;100806.00;;;;4924739;28;87818;-67
2023/05/02 07:05:10;;;;;;;1.80;1.55;;;15.90;98.10;16.00;100809.00;;;;4926034;28;93880;-67
2023/05/02 07:07:36;;;;;;;5.50;2.22;;;15.90;97.80;16.00;100812.00;;;;4925863;28;116782;-67
2023/05/02 07:10:03;;;;;;;4.22;2.45;;;16.00;96.20;15.90;100812.00;;;;4925823;28;87983;-66
2023/05/02 07:12:28;;;;;;;1.98;1.55;;;15.90;95.90;15.70;100837.00;;;;4927983;28;100754;-67
2023/05/02 07:14:54;;;;;;;1.98;1.75;;;15.70;95.50;15.60;100837.00;;;;4927104;28;90083;-67
2023/05/02 07:17:20;;;;;;;1.88;1.77;;;15.60;95.40;15.40;100838.00;;;;4928369;28;97044;-67
2023/05/02 07:19:46;;;;;;;2.40;1.90;;;15.40;96.20;15.10;100845.00;;;;4929000;28;87928;-67
2023/05/02 07:22:11;;;;;;;2.17;2.03;;;15.30;97.70;14.60;100857.00;;;;4923384;28;108586;-67
2023/05/02 07:24:41;;;;;;;4.30;2.50;;;14.80;99.90;14.00;100850.00;;;;4924878;28;88272;-68
2023/05/02 07:27:11;;;;;;;2.70;1.80;;;14.30;99.90;13.40;100865.00;;;;4909205;28;110104;-67
2023/05/02 07:29:37;;;;;;;2.55;1.88;;;13.80;99.90;13.00;100869.00;;;;4923668;28;92936;-66
2023/05/02 07:32:04;;;;;;;2.30;2.13;;;13.30;99.90;12.60;100868.00;;;;4927031;28;108780;-64
2023/05/02 07:34:30;;;;;;;6.30;2.10;;;13.20;99.90;12.40;100867.00;;;;4925787;28;89278;-66
2023/05/02 07:36:56;;;;;;;1.87;1.63;;;12.60;99.90;12.20;100868.00;;;;4924667;28;89020;-64
2023/05/02 07:39:24;;;;;;;2.57;2.37;;;12.40;99.90;12.00;100881.00;;;;4923687;28;88089;-66
2023/05/02 07:41:53;;;;;;;2.10;1.90;;;12.20;99.90;11.90;100881.00;;;;4927235;28;87951;-66
2023/05/02 07:44:19;;;;;;;3.60;2.43;;;12.00;99.90;11.90;100887.00;;;;4922498;28;88085;-66
2023/05/02 07:46:45;;;;;;;5.20;2.60;;;11.90;99.90;11.80;100887.00;;;;4927294;28;87887;-67
2023/05/02 07:49:12;;;;;;;3.13;1.70;;;11.90;99.90;11.80;100893.00;;;;4924341;28;88156;-67
2023/05/02 07:51:41;;;;;;;2.53;2.20;;;11.90;99.90;11.90;100899.00;;;;4926388;28;88217;-67
2023/05/02 07:54:18;;;;;;;2.80;1.90;;;11.90;99.90;11.90;100897.00;;;;4923662;28;89084;-67
2023/05/02 07:56:44;;;;;;;3.90;2.37;;;11.90;99.90;12.00;100905.00;;;;4925478;28;88781;-68
2023/05/02 07:59:10;;;;;;;2.63;2.43;;;12.00;99.90;12.10;100915.00;;;;4924749;28;87736;-68
2023/05/02 08:01:36;;;;;;;3.43;2.70;;;12.10;99.90;12.10;100910.00;;;;4926236;28;88982;-68
2023/05/02 08:04:03;;;;;;;11.17;3.47;;;12.10;99.90;12.10;100918.00;;;;4929340;28;88078;-68
2023/05/02 08:06:29;;;;;;;3.13;2.13;;;12.10;99.90;12.20;100917.00;;;;4925669;28;88570;-69
2023/05/02 08:08:55;;;;;;;3.77;2.30;;;12.20;99.90;12.30;100919.00;;;;4925573;28;88023;-69
2023/05/02 08:11:33;;;;;;;3.70;2.60;;;12.20;99.90;12.40;100931.00;;;;4924595;28;107689;-71
2023/05/02 08:13:59;;;;;;;4.10;3.27;;;12.30;99.90;12.50;100931.00;;;;4931504;28;115908;-70
2023/05/02 08:16:25;;;;;;;4.10;2.13;;;12.40;99.90;12.60;100922.00;;;;4929739;28;87825;-69
2023/05/02 08:18:50;;;;;;;3.37;2.77;;;12.60;99.90;12.70;100923.00;;;;4926853;28;110948;-69
2023/05/02 08:21:16;;;;;;;7.10;2.93;;;12.60;99.90;12.70;100928.00;;;;4927517;28;108936;-69
2023/05/02 08:23:42;;;;;;;3.07;2.50;;;12.70;99.90;12.80;100925.00;;;;4929952;28;117632;-68
2023/05/02 08:26:07;;;;;;;2.97;2.03;;;12.80;99.90;13.00;100946.00;;;;4929689;28;88122;-68
2023/05/02 08:28:33;;;;;;;2.67;2.17;;;12.90;99.90;13.10;100936.00;;;;4928445;28;88072;-68
2023/05/02 08:30:59;;;;;;;4.73;2.70;;;13.00;99.90;13.20;100942.00;;;;4928335;28;107975;-67
2023/05/02 08:33:25;;;;;;;2.73;2.03;;;13.10;99.90;13.30;100946.00;;;;4928144;28;118536;-68
2023/05/02 08:35:51;;;;;;;3.53;2.17;;;13.20;99.90;13.40;100934.00;;;;4929305;28;88208;-67
2023/05/02 08:38:17;;;;;;;2.47;1.43;;;13.30;99.90;13.50;100938.00;;;;4930615;28;87066;-67
2023/05/02 08:40:43;;;;;;;4.90;2.13;;;13.40;99.90;13.70;100951.00;;;;4929804;28;89567;-67
2023/05/02 08:43:11;;;;;;;3.67;2.67;;;13.60;99.90;13.80;100946.00;;;;4925105;28;118376;-67
2023/05/02 08:45:43;;;;;;;2.70;2.37;;;13.70;99.90;13.90;100942.00;;;;4926077;28;89128;-67
2023/05/02 08:48:12;;;;;;;3.40;2.13;;;13.80;99.90;14.00;100940.00;;;;4930329;28;88042;-67
2023/05/02 08:50:40;;;;;;;2.30;2.00;;;13.90;99.90;14.10;100948.00;;;;4928226;28;87933;-68
2023/05/02 08:53:08;;;;;;;4.00;1.95;;;14.10;99.90;14.20;100952.00;;;;4930105;28;88063;-66
2023/05/02 08:55:38;;;;;;;3.35;2.05;;;14.10;99.90;14.20;100955.00;;;;4932296;28;87759;-66
2023/05/02 08:58:05;;;;;;;2.78;2.42;;;14.20;99.90;14.30;100960.00;;;;4927922;28;88101;-66
2023/05/02 09:00:32;;;;;;;2.58;1.73;;;14.20;99.90;14.20;100960.00;;;;4931200;28;96063;-66
2023/05/02 09:03:32;;;;;;;2.65;2.42;;;14.20;99.90;14.00;100965.00;;;;4932316;28;110052;-65
2023/05/02 09:06:16;;;;;;;7.30;2.83;;;14.10;99.90;13.70;100976.00;;;;4931546;28;88395;-66
2023/05/02 09:08:45;;;;;;;3.13;2.28;;;13.80;99.90;13.50;100972.00;;;;4928595;28;87894;-67
2023/05/02 09:11:12;;;;;;;3.00;2.70;;;13.60;99.90;13.40;100972.00;;;;4932820;28;89072;-67
2023/05/02 09:13:44;;;;;;;2.60;1.90;;;13.50;99.90;13.30;100971.00;;;;4928841;28;95438;-67
2023/05/02 09:16:16;;;;;;;4.10;2.53;;;13.40;99.90;13.30;100981.00;;;;4928472;28;87892;-67
2023/05/02 09:18:50;;;;;;;3.77;2.77;;;13.30;99.90;13.30;100987.00;;;;4926927;28;88749;-67
2023/05/02 09:21:18;;;;;;;5.43;2.07;;;13.30;99.90;13.40;100985.00;;;;4929814;28;100511;-67
2023/05/02 09:24:00;;;;;;;2.37;1.87;;;13.40;99.90;13.70;100992.00;;;;4929605;28;88041;-67
2023/05/02 09:26:31;;;;;;;6.40;2.37;;;13.50;99.90;14.00;100983.00;;;;4925187;28;87846;-67
2023/05/02 09:29:00;;;;;;;3.83;2.47;;;13.80;99.90;14.30;100978.00;;;;4928364;28;87262;-67
2023/05/02 09:31:35;;;;;;;3.00;2.08;;;14.10;99.90;14.70;100985.00;;;;4929854;28;100830;-66
2023/05/02 09:34:15;;;;;;;5.60;2.88;;;14.40;99.90;15.10;100981.00;;;;4924889;28;88360;-66
2023/05/02 09:36:50;;;;;;;2.15;1.77;;;14.80;99.90;15.60;100992.00;;;;4928588;28;88996;-67
2023/05/02 09:39:20;;;;;;;2.78;1.90;;;15.20;99.90;16.10;101001.00;;;;4925890;28;88114;-66
2023/05/02 09:41:47;;;;;;;2.45;2.25;;;15.70;99.90;16.50;100997.00;;;;4927399;28;87878;-66
2023/05/02 09:44:19;;;;;;;2.78;1.80;;;16.20;99.90;16.70;100991.00;;;;4931203;28;87749;-66
2023/05/02 09:46:50;;;;;;;2.10;1.92;;;16.50;99.90;16.80;100990.00;;;;4927442;28;88256;-65
2023/05/02 09:49:17;;;;;;;3.78;2.50;;;16.60;99.90;17.00;100994.00;;;;4927819;28;88238;-66
2023/05/02 09:51:47;;;;;;;1.85;1.75;;;16.80;99.90;17.10;100994.00;;;;4930687;28;87798;-65
2023/05/02 09:54:14;;;;;;;3.85;2.30;;;16.90;99.90;17.20;101004.00;;;;4927209;28;88559;-65
2023/05/02 09:56:56;;;;;;;4.05;2.47;;;17.10;99.90;17.20;101001.00;;;;4924851;28;92989;-66
2023/05/02 09:59:22;;;;;;;4.68;2.70;;;17.10;99.90;17.20;101010.00;;;;4924855;28;87788;-66
2023/05/02 10:01:59;;;;;;;3.63;2.30;;;17.10;99.90;17.20;100999.00;;;;4927744;28;88701;-65
2023/05/02 10:04:27;;;;;;;3.47;2.17;;;17.10;99.90;17.10;101007.00;;;;4926370;28;88887;-66
2023/05/02 10:06:54;;;;;;;4.35;3.03;;;17.00;99.90;17.00;101011.00;;;;4925905;28;88855;-66
2023/05/02 10:09:20;;;;;;;2.10;1.90;;;17.00;99.90;16.90;101020.00;;;;4926712;28;90265;-66
2023/05/02 10:11:51;;;;;;;4.07;2.78;;;16.90;99.90;16.90;101015.00;;;;4931360;28;87993;-65
2023/05/02 10:14:19;;;;;;;2.58;2.38;;;16.90;99.90;17.00;101022.00;;;;4925295;28;89084;-65
2023/05/02 10:17:05;;;;;;;2.47;2.15;;;16.90;99.90;16.90;101020.00;;;;4925688;28;88663;-65
2023/05/02 10:19:56;;;;;;;4.28;2.47;;;16.90;99.90;17.00;101014.00;;;;4929861;28;87149;-66
2023/05/02 10:22:25;;;;;;;4.35;2.80;;;16.90;99.90;17.00;101021.00;;;;4925661;28;103188;-65
2023/05/02 10:24:52;;;;;;;2.42;2.20;;;16.90;99.90;17.10;101029.00;;;;4927014;28;89172;-66
2023/05/02 10:27:18;;;;;;;2.85;2.53;;;17.00;99.90;17.10;101026.00;;;;4922880;28;115934;-67
2023/05/02 10:29:45;;;;;;;2.85;2.20;;;17.00;99.90;17.20;101023.00;;;;4927603;28;88033;-66
2023/05/02 10:32:13;;;;;;;4.90;2.58;;;17.10;99.90;17.30;101031.00;;;;4926804;28;88089;-66
2023/05/02 10:34:40;;;;;;;6.70;2.67;;;17.10;99.90;17.30;101024.00;;;;4923882;28;89235;-67
2023/05/02 10:37:06;;;;;;;3.80;2.95;;;17.20;99.90;17.50;101020.00;;;;4926956;28;116184;-65
2023/05/02 10:39:32;;;;;;;4.32;2.58;;;17.30;99.90;17.60;101024.00;;;;4926440;28;110595;-66
2023/05/02 10:42:04;;;;;;;4.20;2.80;;;17.50;99.90;17.90;101031.00;;;;4927720;28;87698;-65
2023/05/02 10:44:40;;;;;;;6.05;3.38;;;17.70;99.90;18.10;101025.00;;;;4926906;28;87949;-65
2023/05/02 10:47:22;;;;;;;2.97;2.40;;;17.80;99.90;18.50;101035.00;;;;4924697;28;88773;-66
2023/05/02 10:49:59;;;;;;;5.00;2.20;;;18.10;99.90;18.90;101032.00;;;;4926881;28;87954;-66
2023/05/02 10:52:27;;;;;;;5.60;2.75;;;18.50;99.90;19.20;101032.00;;;;4924942;28;88904;-66